createdAt,value
2018-04-19T00:02:24.832Z,102862.77
2018-04-19T00:04:58.693Z,102860.30
2018-04-19T00:07:29.982Z,102855.22
2018-04-19T00:10:00.474Z,102855.78
2018-04-19T00:12:29.968Z,102863.52
2018-04-19T00:14:59.331Z,102867.86
2018-04-19T00:17:28.277Z,102861.11
2018-04-19T00:19:57.177Z,102857.73
2018-04-19T00:22:29.277Z,102855.67
2018-04-19T00:24:59.013Z,102857.85
2018-04-19T00:27:33.791Z,102843.47
2018-04-19T00:30:03.507Z,102852.08
2018-04-19T00:35:08.969Z,102845.39
2018-04-19T00:40:12.090Z,102856.96
2018-04-19T00:42:40.994Z,102854.05
2018-04-19T00:45:10.887Z,102854.06
2018-04-19T00:47:41.623Z,102848.09
2018-04-19T00:50:10.921Z,102845.61
2018-04-19T00:52:53.744Z,102847.75
2018-04-19T00:55:23.141Z,102848.59
2018-04-19T00:57:51.701Z,102847.33
2018-04-19T01:00:24.025Z,102845.63
2018-04-19T01:02:53.716Z,102849.53
2018-04-19T01:05:24.046Z,102847.48
2018-04-19T01:07:53.446Z,102850.98
2018-04-19T01:10:22.837Z,102847.19
2018-04-19T01:15:24.946Z,102842.83
2018-04-19T01:17:55.312Z,102846.73
2018-04-19T01:20:24.354Z,102844.69
2018-04-19T01:22:56.387Z,102836.30
2018-04-19T01:25:26.831Z,102839.72
2018-04-19T01:27:55.810Z,102838.50
2018-04-19T01:30:25.058Z,102835.11
2018-04-19T01:32:53.423Z,102836.36
2018-04-19T01:35:35.126Z,102835.16
2018-04-19T01:38:04.217Z,102846.67
2018-04-19T01:40:33.020Z,102837.45
2018-04-19T01:43:01.782Z,102832.47
2018-04-19T01:45:30.565Z,102836.80
2018-04-19T01:48:00.080Z,102831.38
2018-04-19T01:50:29.282Z,102838.11
2018-04-19T01:52:58.029Z,102828.36
2018-04-19T01:55:26.504Z,102835.63
2018-04-19T01:57:55.195Z,102834.28
2018-04-19T02:00:24.297Z,102827.51
2018-04-19T02:02:53.040Z,102832.17
2018-04-19T02:05:21.465Z,102829.14
2018-04-19T02:07:50.718Z,102836.83
2018-04-19T02:10:19.805Z,102830.61
2018-04-19T02:12:48.456Z,102830.29
2018-04-19T02:15:16.894Z,102832.80
2018-04-19T02:17:45.920Z,102828.61
2018-04-19T02:20:14.775Z,102835.02
2018-04-19T02:22:43.195Z,102828.36
2018-04-19T02:25:12.037Z,102835.67
2018-04-19T02:27:40.670Z,102838.33
2018-04-19T02:30:09.357Z,102837.12
2018-04-19T02:32:37.779Z,102831.28
2018-04-19T02:35:06.186Z,102836.44
2018-04-19T02:37:34.809Z,102836.05
2018-04-19T02:40:03.233Z,102833.93
2018-04-19T02:42:31.917Z,102830.11
2018-04-19T02:45:00.719Z,102839.45
2018-04-19T02:47:29.361Z,102833.51
2018-04-19T02:49:57.744Z,102827.95
2018-04-19T02:52:26.109Z,102824.45
2018-04-19T02:54:54.566Z,102837.16
2018-04-19T02:57:23.385Z,102836.76
2018-04-19T02:59:52.376Z,102836.80
2018-04-19T03:02:20.903Z,102842.41
2018-04-19T03:04:49.519Z,102842.48
2018-04-19T03:07:18.129Z,102839.14
2018-04-19T03:09:46.525Z,102845.55
2018-04-19T03:12:15.276Z,102841.41
2018-04-19T03:14:43.718Z,102838.02
2018-04-19T03:17:12.275Z,102841.36
2018-04-19T03:19:40.652Z,102843.00
2018-04-19T03:22:09.348Z,102843.00
2018-04-19T03:24:38.140Z,102830.28
2018-04-19T03:27:06.524Z,102833.72
2018-04-19T03:29:35.892Z,102842.21
2018-04-19T03:32:04.413Z,102841.83
2018-04-19T03:34:33.139Z,102842.69
2018-04-19T03:37:01.865Z,102852.05
2018-04-19T03:39:30.268Z,102844.48
2018-04-19T03:42:00.054Z,102853.39
2018-04-19T03:44:29.396Z,102852.53
2018-04-19T03:46:58.279Z,102853.00
2018-04-19T03:49:26.941Z,102853.43
2018-04-19T03:51:55.884Z,102843.72
2018-04-19T03:54:24.264Z,102849.19
2018-04-19T03:56:52.912Z,102844.06
2018-04-19T03:59:21.773Z,102840.23
2018-04-19T04:01:50.132Z,102845.70
2018-04-19T04:04:18.808Z,102859.22
2018-04-19T04:06:47.234Z,102853.70
2018-04-19T04:09:15.813Z,102856.72
2018-04-19T04:11:44.689Z,102853.28
2018-04-19T04:14:13.339Z,102857.16
2018-04-19T04:16:53.451Z,102849.00
2018-04-19T04:19:35.788Z,102855.25
2018-04-19T04:22:16.034Z,102853.08
2018-04-19T04:24:45.639Z,102860.25
2018-04-19T04:27:15.095Z,102850.97
2018-04-19T04:29:43.712Z,102862.45
2018-04-19T04:32:12.247Z,102858.64
2018-04-19T04:34:40.616Z,102870.94
2018-04-19T04:37:09.063Z,102857.37
2018-04-19T04:39:37.477Z,102858.22
2018-04-19T04:42:06.335Z,102853.03
2018-04-19T04:44:34.706Z,102851.06
2018-04-19T04:47:03.674Z,102848.30
2018-04-19T04:49:32.027Z,102832.84
2018-04-19T04:52:00.391Z,102846.74
2018-04-19T04:54:29.030Z,102839.44
2018-04-19T04:56:57.587Z,102851.47
2018-04-19T04:59:26.042Z,102855.97
2018-04-19T05:01:54.419Z,102860.52
2018-04-19T05:04:22.839Z,102865.20
2018-04-19T05:06:51.647Z,102868.17
2018-04-19T05:09:20.115Z,102853.74
2018-04-19T05:11:48.483Z,102863.49
2018-04-19T05:14:17.392Z,102863.55
2018-04-19T05:16:46.044Z,102864.30
2018-04-19T05:19:14.424Z,102868.09
2018-04-19T05:21:42.783Z,102869.31
2018-04-19T05:24:11.528Z,102869.66
2018-04-19T05:26:40.205Z,102869.63
2018-04-19T05:29:08.866Z,102877.19
2018-04-19T05:31:37.649Z,102877.84
2018-04-19T05:34:06.636Z,102879.42
2018-04-19T05:36:35.024Z,102874.60
2018-04-19T05:39:04.355Z,102874.59
2018-04-19T05:41:32.753Z,102881.76
2018-04-19T05:44:01.400Z,102880.42
2018-04-19T05:46:29.827Z,102893.51
2018-04-19T05:48:58.434Z,102894.66
2018-04-19T05:51:26.945Z,102894.64
2018-04-19T05:53:56.234Z,102897.44
2018-04-19T05:56:24.868Z,102896.08
2018-04-19T05:58:53.557Z,102902.81
2018-04-19T06:01:22.385Z,102900.59
2018-04-19T06:03:50.980Z,102913.72
2018-04-19T06:06:19.357Z,102906.35
2018-04-19T06:08:48.800Z,102910.39
2018-04-19T06:11:17.688Z,102913.12
2018-04-19T06:13:46.051Z,102920.13
2018-04-19T06:16:15.943Z,102917.05
2018-04-19T06:18:44.644Z,102911.04
2018-04-19T06:21:14.046Z,102914.87
2018-04-19T06:23:42.413Z,102911.81
2018-04-19T06:26:10.787Z,102923.08
2018-04-19T06:28:40.176Z,102922.81
2018-04-19T06:31:08.698Z,102918.40
2018-04-19T06:33:37.301Z,102923.25
2018-04-19T06:36:06.412Z,102920.91
2018-04-19T06:38:35.806Z,102916.44
2018-04-19T06:41:04.208Z,102918.33
2018-04-19T06:43:32.904Z,102915.56
2018-04-19T06:46:01.589Z,102912.40
2018-04-19T06:48:30.051Z,102908.36
2018-04-19T06:50:58.821Z,102912.34
2018-04-19T06:53:27.193Z,102915.05
2018-04-19T06:55:55.934Z,102917.94
2018-04-19T06:58:24.391Z,102918.63
2018-04-19T07:00:53.305Z,102921.87
2018-04-19T07:03:22.219Z,102928.16
2018-04-19T07:05:52.187Z,102922.88
2018-04-19T07:08:20.612Z,102923.63
2018-04-19T07:10:49.087Z,102921.72
2018-04-19T07:13:17.503Z,102924.83
2018-04-19T07:15:46.531Z,102934.97
2018-04-19T07:18:16.056Z,102929.62
2018-04-19T07:20:44.516Z,102925.57
2018-04-19T07:23:12.878Z,102924.47
2018-04-19T07:25:41.598Z,102928.31
2018-04-19T07:28:10.434Z,102929.84
2018-04-19T07:30:39.639Z,102942.03
2018-04-19T07:33:08.021Z,102935.11
2018-04-19T07:35:36.385Z,102936.59
2018-04-19T07:38:05.101Z,102938.61
2018-04-19T07:40:33.777Z,102940.01
2018-04-19T07:43:02.544Z,102946.55
2018-04-19T07:45:30.996Z,102940.27
2018-04-19T07:47:59.346Z,102946.80
2018-04-19T07:50:27.931Z,102958.20
2018-04-19T07:52:56.649Z,102951.25
2018-04-19T07:55:25.820Z,102956.94
2018-04-19T07:57:54.331Z,102968.36
2018-04-19T08:00:22.699Z,102967.87
2018-04-19T08:02:51.495Z,102974.95
2018-04-19T08:05:20.325Z,102978.22
2018-04-19T08:07:48.980Z,102979.72
2018-04-19T08:10:18.176Z,102978.00
2018-04-19T08:12:47.180Z,102982.63
2018-04-19T08:15:15.933Z,102980.48
2018-04-19T08:17:44.279Z,102984.62
2018-04-19T08:20:12.660Z,102981.97
2018-04-19T08:22:41.036Z,102984.48
2018-04-19T08:25:10.777Z,102981.98
2018-04-19T08:27:39.590Z,102979.16
2018-04-19T08:30:07.956Z,102973.06
2018-04-19T08:32:36.373Z,102977.34
2018-04-19T08:35:04.919Z,102967.97
2018-04-19T08:37:33.735Z,102979.08
2018-04-19T08:40:02.123Z,102978.68
2018-04-19T08:42:30.920Z,102972.75
2018-04-19T08:44:59.284Z,102974.99
2018-04-19T08:47:27.949Z,102968.09
2018-04-19T08:49:56.904Z,102975.05
2018-04-19T08:52:25.941Z,102972.47
2018-04-19T08:54:54.665Z,102974.70
2018-04-19T08:57:23.336Z,102979.28
2018-04-19T08:59:51.718Z,102980.52
2018-04-19T09:02:20.174Z,102986.81
2018-04-19T09:04:48.567Z,102980.20
2018-04-19T09:07:17.011Z,102982.58
2018-04-19T09:09:45.472Z,102981.95
2018-04-19T09:12:13.823Z,102983.44
2018-04-19T09:14:42.558Z,102979.59
2018-04-19T09:17:11.302Z,102981.41
2018-04-19T09:19:39.675Z,102985.09
2018-04-19T09:22:08.023Z,102984.48
2018-04-19T09:24:36.766Z,102988.61
2018-04-19T09:27:05.264Z,102979.13
2018-04-19T09:29:33.701Z,102985.27
2018-04-19T09:32:02.059Z,102970.47
2018-04-19T09:34:30.783Z,102972.34
2018-04-19T09:37:00.043Z,102980.19
2018-04-19T09:39:28.477Z,102980.86
2018-04-19T09:41:56.966Z,102975.31
2018-04-19T09:44:25.630Z,102983.64
2018-04-19T09:46:54.591Z,102985.25
2018-04-19T09:49:23.015Z,102991.80
2018-04-19T09:51:51.920Z,102991.39
2018-04-19T09:54:22.494Z,102990.12
2018-04-19T09:56:50.855Z,102996.94
2018-04-19T09:59:19.580Z,102993.83
2018-04-19T10:01:51.678Z,102980.69
2018-04-19T10:04:25.808Z,102993.52
2018-04-19T10:07:00.337Z,102990.38
2018-04-19T10:09:28.977Z,102984.84
2018-04-19T10:11:57.387Z,102988.44
2018-04-19T10:14:27.003Z,102987.41
2018-04-19T10:16:56.370Z,102983.96
2018-04-19T10:19:25.100Z,102984.43
2018-04-19T10:21:53.546Z,102984.18
2018-04-19T10:24:23.176Z,102989.08
2018-04-19T10:26:51.576Z,102979.73
2018-04-19T10:29:19.955Z,102975.26
2018-04-19T10:31:48.329Z,102978.54
2018-04-19T10:34:16.747Z,102982.35
2018-04-19T10:36:45.414Z,102983.97
2018-04-19T10:39:13.889Z,102990.36
2018-04-19T10:41:42.455Z,102979.94
2018-04-19T10:44:10.803Z,102981.36
2018-04-19T10:46:39.940Z,102976.26
2018-04-19T10:49:08.302Z,102977.17
2018-04-19T10:51:38.440Z,102972.02
2018-04-19T10:54:07.454Z,102975.39
2018-04-19T10:56:36.166Z,102978.48
2018-04-19T10:59:04.544Z,102975.16
2018-04-19T11:01:33.213Z,102975.72
2018-04-19T11:04:01.577Z,102980.62
2018-04-19T11:06:30.157Z,102976.54
2018-04-19T11:08:59.059Z,102979.12
2018-04-19T11:11:27.564Z,102980.41
2018-04-19T11:17:14.560Z,102992.09
2018-04-19T11:19:52.010Z,103001.56
2018-04-19T11:22:26.183Z,102991.77
2018-04-19T11:24:54.764Z,102986.46
2018-04-19T11:27:23.596Z,102991.91
2018-04-19T11:29:52.244Z,102992.61
2018-04-19T11:32:23.629Z,102993.45
2018-04-19T11:34:52.021Z,102990.02
2018-04-19T11:37:20.395Z,102989.76
2018-04-19T11:39:49.065Z,102980.88
2018-04-19T11:42:18.445Z,102981.69
2018-04-19T11:44:47.337Z,102987.82
2018-04-19T11:47:16.402Z,102984.28
2018-04-19T11:49:45.091Z,102988.21
2018-04-19T11:52:14.020Z,102985.55
2018-04-19T11:54:43.613Z,102990.23
2018-04-19T11:57:13.699Z,102975.09
2018-04-19T11:59:42.060Z,102977.77
2018-04-19T12:02:10.836Z,102977.59
2018-04-19T12:04:40.513Z,102975.73
2018-04-19T12:07:09.621Z,102972.43
2018-04-19T12:09:38.093Z,102976.14
2018-04-19T12:12:06.629Z,102968.69
2018-04-19T12:14:35.450Z,102963.92
2018-04-19T12:17:03.991Z,102962.59
2018-04-19T12:19:32.945Z,102962.63
2018-04-19T12:22:01.346Z,102967.38
2018-04-19T12:24:29.805Z,102974.25
2018-04-19T12:26:58.937Z,102960.31
2018-04-19T12:29:28.261Z,102963.92
2018-04-19T12:31:56.873Z,102969.39
2018-04-19T12:34:25.295Z,102973.78
2018-04-19T12:36:54.119Z,102963.89
2018-04-19T12:39:22.899Z,102953.13
2018-04-19T12:41:51.280Z,102961.08
2018-04-19T12:44:19.659Z,102960.42
2018-04-19T12:46:48.013Z,102948.33
2018-04-19T12:49:17.346Z,102945.34
2018-04-19T12:51:45.732Z,102952.77
2018-04-19T12:54:14.173Z,102953.68
2018-04-19T12:56:42.531Z,102952.82
2018-04-19T12:59:10.992Z,102948.70
2018-04-19T13:01:39.879Z,102951.09
2018-04-19T13:04:08.230Z,102946.47
2018-04-19T13:06:36.575Z,102941.02
2018-04-19T13:09:05.297Z,102941.20
2018-04-19T13:11:33.821Z,102943.91
2018-04-19T13:14:02.648Z,102941.92
2018-04-19T13:16:31.847Z,102935.34
2018-04-19T13:19:00.241Z,102941.66
2018-04-19T13:21:28.589Z,102936.65
2018-04-19T13:23:57.028Z,102945.43
2018-04-19T13:26:25.401Z,102941.59
2018-04-19T13:28:53.799Z,102938.05
2018-04-19T13:31:22.478Z,102946.27
2018-04-19T13:33:51.309Z,102945.17
2018-04-19T13:36:19.669Z,102942.91
2018-04-19T13:38:48.309Z,102938.42
2018-04-19T13:41:16.670Z,102942.41
2018-04-19T13:43:45.060Z,102940.91
2018-04-19T13:46:13.411Z,102938.19
2018-04-19T13:48:42.161Z,102937.03
2018-04-19T13:51:10.791Z,102940.34
2018-04-19T13:53:39.407Z,102931.48
2018-04-19T13:56:07.789Z,102930.88
2018-04-19T13:58:36.231Z,102935.20
2018-04-19T14:01:05.239Z,102938.56
2018-04-19T14:03:33.593Z,102937.72
2018-04-19T14:06:02.013Z,102929.58
2018-04-19T14:08:30.411Z,102929.06
2018-04-19T14:10:58.767Z,102930.44
2018-04-19T14:13:27.764Z,102922.84
2018-04-19T14:15:56.396Z,102920.04
2018-04-19T14:18:25.422Z,102916.70
2018-04-19T14:20:53.920Z,102918.20
2018-04-19T14:23:22.284Z,102920.52
2018-04-19T14:25:51.824Z,102928.97
2018-04-19T14:28:20.595Z,102921.27
2018-04-19T14:30:49.093Z,102925.36
2018-04-19T14:33:18.137Z,102920.37
2018-04-19T14:35:46.691Z,102927.59
2018-04-19T14:38:15.450Z,102924.02
2018-04-19T14:40:43.809Z,102922.95
2018-04-19T14:43:12.311Z,102918.96
2018-04-19T14:45:41.603Z,102920.92
2018-04-19T14:48:10.035Z,102926.23
2018-04-19T14:50:39.103Z,102926.53
2018-04-19T14:53:07.523Z,102926.31
2018-04-19T14:55:36.385Z,102921.19
2018-04-19T14:58:04.850Z,102921.46
2018-04-19T15:00:33.826Z,102918.71
2018-04-19T15:03:02.467Z,102920.63
2018-04-19T15:05:30.832Z,102923.16
2018-04-19T15:07:59.829Z,102924.33
2018-04-19T15:10:28.720Z,102923.16
2018-04-19T15:12:57.389Z,102915.59
2018-04-19T15:15:26.344Z,102919.69
2018-04-19T15:17:55.322Z,102921.70
2018-04-19T15:20:24.751Z,102917.03
2018-04-19T15:22:53.274Z,102916.34
2018-04-19T15:25:21.983Z,102916.66
2018-04-19T15:27:50.430Z,102924.46
2018-04-19T15:30:19.292Z,102915.34
2018-04-19T15:32:48.260Z,102915.63
2018-04-19T15:35:17.680Z,102921.09
2018-04-19T15:37:47.084Z,102914.19
2018-04-19T15:40:15.547Z,102915.13
2018-04-19T15:42:44.298Z,102908.59
2018-04-19T15:45:13.092Z,102912.27
2018-04-19T15:47:41.882Z,102907.92
2018-04-19T15:50:11.079Z,102909.42
2018-04-19T15:52:39.765Z,102913.78
2018-04-19T15:55:08.145Z,102907.73
2018-04-19T15:57:36.956Z,102908.17
2018-04-19T16:00:06.548Z,102905.91
2018-04-19T16:02:35.343Z,102900.29
2018-04-19T16:05:04.984Z,102905.08
2018-04-19T16:07:33.430Z,102901.03
2018-04-19T16:10:01.997Z,102900.11
2018-04-19T16:12:31.314Z,102902.80
2018-04-19T16:15:00.081Z,102901.02
2018-04-19T16:17:28.998Z,102906.53
2018-04-19T16:19:58.420Z,102903.31
2018-04-19T16:22:29.400Z,102895.54
2018-04-19T16:25:00.450Z,102902.30
2018-04-19T16:27:28.939Z,102894.88
2018-04-19T16:29:58.172Z,102897.41
2018-04-19T16:32:27.048Z,102894.77
2018-04-19T16:34:57.001Z,102902.20
2018-04-19T16:37:29.339Z,102907.02
2018-04-19T16:39:58.424Z,102901.26
2018-04-19T16:42:27.241Z,102906.52
2018-04-19T16:44:57.614Z,102906.55
2018-04-19T16:47:27.887Z,102909.45
2018-04-19T16:49:56.787Z,102909.92
2018-04-19T16:52:28.726Z,102901.97
2018-04-19T16:54:57.398Z,102902.64
2018-04-19T16:57:25.905Z,102900.29
2018-04-19T16:59:54.722Z,102901.80
2018-04-19T17:02:26.369Z,102905.45
2018-04-19T17:04:57.185Z,102900.52
2018-04-19T17:07:26.518Z,102903.06
2018-04-19T17:09:58.727Z,102902.66
2018-04-19T17:12:27.365Z,102908.44
2018-04-19T17:14:56.080Z,102907.34
2018-04-19T17:17:25.117Z,102910.80
2018-04-19T17:19:54.453Z,102902.95
2018-04-19T17:22:22.934Z,102909.22
2018-04-19T17:24:51.728Z,102906.13
2018-04-19T17:27:21.331Z,102904.72
2018-04-19T17:29:50.347Z,102903.34
2018-04-19T17:32:18.715Z,102905.42
2018-04-19T17:34:47.161Z,102910.94
2018-04-19T17:37:15.988Z,102906.20
2018-04-19T17:39:45.388Z,102907.08
2018-04-19T17:42:13.757Z,102907.47
2018-04-19T17:44:42.144Z,102909.38
2018-04-19T17:47:11.481Z,102907.55
2018-04-19T17:49:39.934Z,102905.77
2018-04-19T17:52:08.863Z,102905.25
2018-04-19T17:54:37.882Z,102912.69
2018-04-19T17:57:08.187Z,102913.00
2018-04-19T17:59:37.632Z,102914.83
2018-04-19T18:02:06.356Z,102911.34
2018-04-19T18:04:35.109Z,102909.97
2018-04-19T18:07:05.296Z,102904.39
2018-04-19T18:09:35.073Z,102914.66
2018-04-19T18:12:03.750Z,102912.75
2018-04-19T18:14:32.535Z,102914.73
2018-04-19T18:17:01.432Z,102914.87
2018-04-19T18:19:31.189Z,102913.16
2018-04-19T18:22:00.429Z,102914.02
2018-04-19T18:24:28.900Z,102914.55
2018-04-19T18:26:57.628Z,102917.70
2018-04-19T18:29:26.141Z,102916.59
2018-04-19T18:31:55.623Z,102915.04
2018-04-19T18:34:24.515Z,102917.53
2018-04-19T18:36:55.074Z,102919.94
2018-04-19T18:39:23.512Z,102919.01
2018-04-19T18:41:51.961Z,102919.85
2018-04-19T18:44:20.901Z,102915.25
2018-04-19T18:46:49.371Z,102914.64
2018-04-19T18:49:18.202Z,102917.09
2018-04-19T18:51:47.394Z,102913.12
2018-04-19T18:54:16.207Z,102922.33
2018-04-19T18:56:44.938Z,102921.94
2018-04-19T18:59:13.602Z,102919.20
2018-04-19T19:01:42.174Z,102916.98
2018-04-19T19:04:10.632Z,102921.23
2018-04-19T19:06:40.293Z,102917.38
2018-04-19T19:09:08.754Z,102917.82
2018-04-19T19:11:38.105Z,102918.60
2018-04-19T19:14:07.614Z,102921.06
2018-04-19T19:16:36.436Z,102917.38
2018-04-19T19:19:16.843Z,102913.31
2018-04-19T19:21:45.658Z,102918.39
2018-04-19T19:24:14.833Z,102911.79
2018-04-19T19:26:43.944Z,102912.06
2018-04-19T19:29:12.932Z,102907.59
2018-04-19T19:31:42.032Z,102904.28
2018-04-19T19:34:10.715Z,102905.38
2018-04-19T19:36:40.315Z,102901.23
2018-04-19T19:39:09.028Z,102900.97
2018-04-19T19:41:39.146Z,102899.91
2018-04-19T19:44:07.973Z,102894.62
2018-04-19T19:46:36.488Z,102892.81
2018-04-19T19:49:04.990Z,102894.67
2018-04-19T19:51:33.885Z,102892.19
2018-04-19T19:54:03.328Z,102892.13
2018-04-19T19:56:32.647Z,102885.09
2018-04-19T19:59:01.792Z,102880.17
2018-04-19T20:01:30.231Z,102888.82
2018-04-19T20:03:59.267Z,102886.03
2018-04-19T20:06:28.014Z,102883.88
2018-04-19T20:08:56.569Z,102886.04
2018-04-19T20:11:26.026Z,102882.80
2018-04-19T20:13:54.556Z,102887.63
2018-04-19T20:16:23.048Z,102883.55
2018-04-19T20:18:53.052Z,102890.46
2018-04-19T20:21:21.804Z,102884.57
2018-04-19T20:23:50.717Z,102896.78
2018-04-19T20:26:19.532Z,102895.81
2018-04-19T20:28:48.462Z,102894.76
2018-04-19T20:31:17.110Z,102888.77
2018-04-19T20:33:46.435Z,102890.27
2018-04-19T20:36:15.521Z,102893.86
2018-04-19T20:38:44.435Z,102893.22
2018-04-19T20:41:13.004Z,102894.64
2018-04-19T20:43:43.521Z,102885.80
2018-04-19T20:46:13.023Z,102885.92
2018-04-19T20:48:41.503Z,102886.48
2018-04-19T20:51:10.534Z,102887.53
2018-04-19T20:53:39.904Z,102888.55
2018-04-19T20:56:09.347Z,102886.03
2018-04-19T20:58:37.796Z,102875.45
2018-04-19T21:01:06.243Z,102881.48
2018-04-19T21:03:35.299Z,102882.41
2018-04-19T21:06:04.672Z,102887.19
2018-04-19T21:08:33.149Z,102885.92
2018-04-19T21:11:02.118Z,102882.95
2018-04-19T21:13:30.914Z,102877.13
2018-04-19T21:15:59.363Z,102879.32
2018-04-19T21:18:27.973Z,102877.66
2018-04-19T21:20:57.504Z,102878.05
2018-04-19T21:23:25.942Z,102876.34
2018-04-19T21:25:54.435Z,102881.91
2018-04-19T21:28:23.011Z,102876.88
2018-04-19T21:30:51.532Z,102879.53
2018-04-19T21:33:20.068Z,102879.95
2018-04-19T21:35:49.194Z,102877.41
2018-04-19T21:38:18.420Z,102876.20
2018-04-19T21:40:47.708Z,102883.00
2018-04-19T21:43:17.116Z,102884.32
2018-04-19T21:45:47.057Z,102888.25
2018-04-19T21:48:16.467Z,102880.24
2018-04-19T21:50:45.515Z,102881.58
2018-04-19T21:53:16.296Z,102883.38
2018-04-19T21:55:46.430Z,102882.53
2018-04-19T21:58:15.211Z,102878.23
2018-04-19T22:00:45.633Z,102877.44
2018-04-19T22:03:14.749Z,102880.08
2018-04-19T22:05:43.593Z,102880.50
2018-04-19T22:08:12.173Z,102879.33
2018-04-19T22:10:41.027Z,102884.47
2018-04-19T22:13:09.747Z,102884.05
2018-04-19T22:15:38.670Z,102878.91
2018-04-19T22:18:07.131Z,102883.14
2018-04-19T22:20:37.542Z,102887.44
2018-04-19T22:23:06.451Z,102883.67
2018-04-19T22:25:34.891Z,102883.30
2018-04-19T22:28:03.990Z,102885.14
2018-04-19T22:30:33.697Z,102880.61
2018-04-19T22:33:03.256Z,102881.89
2018-04-19T22:35:32.075Z,102886.21
2018-04-19T22:38:01.767Z,102882.41
2018-04-19T22:40:31.905Z,102886.68
2018-04-19T22:43:00.807Z,102886.30
2018-04-19T22:45:29.489Z,102884.27
2018-04-19T22:47:58.356Z,102888.17
2018-04-19T22:50:26.794Z,102883.55
2018-04-19T22:52:56.098Z,102879.39
2018-04-19T22:55:27.211Z,102874.35
2018-04-19T22:57:56.000Z,102875.66
2018-04-19T23:00:27.086Z,102874.81
2018-04-19T23:02:56.440Z,102871.84
2018-04-19T23:05:25.028Z,102866.80
2018-04-19T23:07:54.438Z,102868.92
2018-04-19T23:10:23.949Z,102864.69
2018-04-19T23:12:52.457Z,102867.31
2018-04-19T23:15:20.889Z,102864.91
2018-04-19T23:17:49.696Z,102866.26
2018-04-19T23:20:18.589Z,102857.83
2018-04-19T23:22:47.962Z,102867.60
2018-04-19T23:25:16.887Z,102861.70
2018-04-19T23:27:45.675Z,102859.20
2018-04-19T23:30:14.572Z,102852.00
2018-04-19T23:32:43.256Z,102857.05
2018-04-19T23:35:11.741Z,102858.81
2018-04-19T23:37:41.231Z,102853.30
2018-04-19T23:40:12.610Z,102848.23
2018-04-19T23:42:41.553Z,102849.53
2018-04-19T23:45:11.622Z,102846.17
2018-04-19T23:47:40.305Z,102842.79
2018-04-19T23:50:08.771Z,102836.86
2018-04-19T23:52:40.472Z,102834.32
2018-04-19T23:55:09.879Z,102830.52
2018-04-19T23:57:38.598Z,102830.94
